Accueil
METAR-TAF:

METAR-TAF

Aéroports :

Aéroport d'Osijek

Osijek, Croatie

latitude: 45-27N, longitude: 018-48E, altitude: 88 m

Observation

Le bulletin a été fait il y a 17 minutes, à 10:30 UTC
Vent 3 kt de sud-est, variant entre est/sud-est et sud
Température 5°C
Humidité 45%
Pression 1033 hPa
Visibilité 10 km ou plus
Nuages épars à une hauteur de 3500 ft

METAR: LDOS 061030Z 14003KT 110V190 9999 SCT035 05/M06 Q1033

Heure: 11:47 (10:47 UTC)

Prévision

Le bulletin a été fait il y a 5 heures et 22 minutes, à 05:25 UTC
Prévision valable du 06 à 06 UTC au 07 à 06 UTC
Vent 7 kt de nord/nord-ouest
Visibilité 10 km ou plus
pas de nuages en-dessous de 1500 mètres et pas de cumulonimbus.

TAF: LDOS 060525Z 0606/0706 33007KT CAVOK TX08/0613Z TNM03/0704Z

Observations et prévisions météorologiques de plus de 4000 aéroports (messages METAR et TAF).

Les stations disponibles sont représentées par des disques jaunes et rouges sur la carte.

Passer la souris dessus pour voir le nom de la station.

Cliquer dessus pour voir les observations et prévisions météorologiques.

Pour changer de carte: cliquez sur les boutons verts avec une croix noire pour zoomer, sur le bouton vert avec un tiret pour effectuer un zoom arrière, ou sur les flèches vertes pour les cartes adjacentes.


METAR-TAF: